sensor_id;sensor_type;location;lat;lon;timestamp;pressure;altitude;pressure_sealevel;temperature;humidity
20889;BME280;10604;51.976;7.594;2022-08-11T00:02:47;101538.13;;;32.66;29.31
20889;BME280;10604;51.976;7.594;2022-08-11T00:05:18;101551.28;;;32.71;29.55
20889;BME280;10604;51.976;7.594;2022-08-11T00:07:50;101541.19;;;32.47;30.24
20889;BME280;10604;51.976;7.594;2022-08-11T00:10:25;101549.34;;;32.31;30.45
20889;BME280;10604;51.976;7.594;2022-08-11T00:12:54;101548.47;;;32.30;30.79
20889;BME280;10604;51.976;7.594;2022-08-11T00:15:22;101543.06;;;32.46;30.53
20889;BME280;10604;51.976;7.594;2022-08-11T00:17:48;101545.59;;;32.32;30.25
20889;BME280;10604;51.976;7.594;2022-08-11T00:20:15;101544.91;;;32.38;30.06
20889;BME280;10604;51.976;7.594;2022-08-11T00:22:43;101544.38;;;32.34;30.24
20889;BME280;10604;51.976;7.594;2022-08-11T00:25:10;101540.16;;;32.40;30.48
20889;BME280;10604;51.976;7.594;2022-08-11T00:27:38;101540.81;;;32.25;30.12
20889;BME280;10604;51.976;7.594;2022-08-11T00:30:06;101547.50;;;31.97;30.83
20889;BME280;10604;51.976;7.594;2022-08-11T00:32:32;101542.25;;;32.04;30.53
20889;BME280;10604;51.976;7.594;2022-08-11T00:34:59;101537.56;;;31.88;30.75
20889;BME280;10604;51.976;7.594;2022-08-11T00:37:26;101544.56;;;31.82;30.85
20889;BME280;10604;51.976;7.594;2022-08-11T00:39:53;101545.44;;;31.99;30.98
20889;BME280;10604;51.976;7.594;2022-08-11T01:01:19;101547.63;;;31.54;31.39
20889;BME280;10604;51.976;7.594;2022-08-11T01:15:44;101543.94;;;31.11;32.04
20889;BME280;10604;51.976;7.594;2022-08-11T01:18:43;101533.63;;;31.05;31.76
20889;BME280;10604;51.976;7.594;2022-08-11T01:24:07;101543.78;;;31.38;31.73
20889;BME280;10604;51.976;7.594;2022-08-11T01:49:31;101540.63;;;31.25;31.76
20889;BME280;10604;51.976;7.594;2022-08-11T02:00:26;101545.06;;;30.83;32.17
20889;BME280;10604;51.976;7.594;2022-08-11T02:03:05;101545.16;;;30.99;31.94
20889;BME280;10604;51.976;7.594;2022-08-11T02:05:50;101543.13;;;30.75;32.33
20889;BME280;10604;51.976;7.594;2022-08-11T02:08:54;101540.84;;;30.70;32.35
20889;BME280;10604;51.976;7.594;2022-08-11T02:11:30;101539.97;;;30.70;32.44
20889;BME280;10604;51.976;7.594;2022-08-11T02:25:39;101552.53;;;30.81;32.07
20889;BME280;10604;51.976;7.594;2022-08-11T02:28:17;101545.34;;;30.80;32.35
20889;BME280;10604;51.976;7.594;2022-08-11T02:31:06;101547.25;;;30.61;32.38
20889;BME280;10604;51.976;7.594;2022-08-11T02:33:58;101546.84;;;30.56;32.49
20889;BME280;10604;51.976;7.594;2022-08-11T02:36:41;101550.03;;;30.69;32.34
20889;BME280;10604;51.976;7.594;2022-08-11T02:39:13;101541.28;;;30.84;31.92
20889;BME280;10604;51.976;7.594;2022-08-11T02:44:56;101541.28;;;30.84;32.26
20889;BME280;10604;51.976;7.594;2022-08-11T02:48:19;101544.56;;;30.69;32.50
20889;BME280;10604;51.976;7.594;2022-08-11T03:01:50;101553.56;;;30.17;32.97
20889;BME280;10604;51.976;7.594;2022-08-11T03:04:40;101550.59;;;30.28;32.82
20889;BME280;10604;51.976;7.594;2022-08-11T03:07:42;101546.59;;;30.32;32.74
20889;BME280;10604;51.976;7.594;2022-08-11T03:24:55;101558.34;;;30.32;32.79
20889;BME280;10604;51.976;7.594;2022-08-11T03:27:32;101562.31;;;30.38;32.76
20889;BME280;10604;51.976;7.594;2022-08-11T03:36:00;101556.47;;;30.33;33.05
20889;BME280;10604;51.976;7.594;2022-08-11T03:39:19;101561.41;;;30.20;32.68
20889;BME280;10604;51.976;7.594;2022-08-11T03:41:31;101555.38;;;30.26;32.77
20889;BME280;10604;51.976;7.594;2022-08-11T03:53:08;101547.41;;;29.87;33.56
20889;BME280;10604;51.976;7.594;2022-08-11T04:00:44;101547.69;;;29.84;33.60
20889;BME280;10604;51.976;7.594;2022-08-11T04:23:10;101543.59;;;29.34;34.23
20889;BME280;10604;51.976;7.594;2022-08-11T04:28:53;101540.38;;;29.57;33.85
20889;BME280;10604;51.976;7.594;2022-08-11T04:31:34;101539.00;;;29.44;34.57
20889;BME280;10604;51.976;7.594;2022-08-11T04:34:18;101537.53;;;29.49;34.15
20889;BME280;10604;51.976;7.594;2022-08-11T04:37:11;101538.00;;;29.72;33.99
20889;BME280;10604;51.976;7.594;2022-08-11T05:13:10;101545.50;;;30.25;33.35
20889;BME280;10604;51.976;7.594;2022-08-11T05:15:57;101542.09;;;30.58;32.83
20889;BME280;10604;51.976;7.594;2022-08-11T05:18:50;101550.69;;;30.36;32.97
20889;BME280;10604;51.976;7.594;2022-08-11T05:21:37;101544.28;;;30.72;32.90
20889;BME280;10604;51.976;7.594;2022-08-11T05:27:09;101544.13;;;30.56;33.11
20889;BME280;10604;51.976;7.594;2022-08-11T05:30:04;101550.78;;;30.44;33.19
20889;BME280;10604;51.976;7.594;2022-08-11T05:32:58;101552.06;;;30.67;32.85
20889;BME280;10604;51.976;7.594;2022-08-11T05:35:47;101552.91;;;30.86;32.69
20889;BME280;10604;51.976;7.594;2022-08-11T05:38:24;101554.84;;;30.40;33.64
20889;BME280;10604;51.976;7.594;2022-08-11T05:41:13;101553.91;;;30.49;33.29
20889;BME280;10604;51.976;7.594;2022-08-11T05:44:02;101552.81;;;30.42;33.71
20889;BME280;10604;51.976;7.594;2022-08-11T05:46:47;101553.81;;;30.41;33.61
20889;BME280;10604;51.976;7.594;2022-08-11T05:49:32;101556.72;;;30.93;33.39
20889;BME280;10604;51.976;7.594;2022-08-11T05:52:21;101547.59;;;30.84;32.43
20889;BME280;10604;51.976;7.594;2022-08-11T05:55:06;101562.50;;;31.33;31.57
20889;BME280;10604;51.976;7.594;2022-08-11T05:57:55;101562.75;;;31.74;31.70
20889;BME280;10604;51.976;7.594;2022-08-11T06:00:21;101560.75;;;31.76;31.97
20889;BME280;10604;51.976;7.594;2022-08-11T06:02:54;101553.53;;;31.67;30.95
20889;BME280;10604;51.976;7.594;2022-08-11T06:05:20;101563.03;;;31.97;30.63
20889;BME280;10604;51.976;7.594;2022-08-11T06:07:48;101559.94;;;31.92;30.58
20889;BME280;10604;51.976;7.594;2022-08-11T06:10:25;101561.28;;;31.87;30.01
20889;BME280;10604;51.976;7.594;2022-08-11T06:12:52;101562.34;;;32.45;30.28
20889;BME280;10604;51.976;7.594;2022-08-11T06:15:18;101561.53;;;32.60;30.62
20889;BME280;10604;51.976;7.594;2022-08-11T06:17:45;101558.91;;;32.35;30.33
20889;BME280;10604;51.976;7.594;2022-08-11T06:20:12;101561.38;;;32.70;29.31
20889;BME280;10604;51.976;7.594;2022-08-11T06:22:40;101555.38;;;33.07;29.44
20889;BME280;10604;51.976;7.594;2022-08-11T06:25:08;101550.25;;;33.20;29.78
20889;BME280;10604;51.976;7.594;2022-08-11T06:27:35;101558.91;;;33.56;28.80
20889;BME280;10604;51.976;7.594;2022-08-11T06:30:03;101559.63;;;33.50;29.32
20889;BME280;10604;51.976;7.594;2022-08-11T06:32:38;101556.53;;;33.53;29.77
20889;BME280;10604;51.976;7.594;2022-08-11T06:41:43;101560.44;;;34.06;29.02
20889;BME280;10604;51.976;7.594;2022-08-11T06:49:12;101555.84;;;35.06;26.94
20889;BME280;10604;51.976;7.594;2022-08-11T06:52:05;101558.47;;;34.99;26.89
20889;BME280;10604;51.976;7.594;2022-08-11T06:54:36;101566.72;;;35.37;26.93
20889;BME280;10604;51.976;7.594;2022-08-11T06:57:06;101563.59;;;35.54;26.35
20889;BME280;10604;51.976;7.594;2022-08-11T06:59:52;101557.84;;;35.93;25.50
20889;BME280;10604;51.976;7.594;2022-08-11T07:02:45;101562.84;;;35.90;25.73
20889;BME280;10604;51.976;7.594;2022-08-11T07:05:21;101560.63;;;36.15;25.19
20889;BME280;10604;51.976;7.594;2022-08-11T07:08:12;101563.66;;;36.56;24.80
20889;BME280;10604;51.976;7.594;2022-08-11T07:14:22;101563.50;;;36.78;24.22
20889;BME280;10604;51.976;7.594;2022-08-11T07:17:12;101547.84;;;37.28;23.96
20889;BME280;10604;51.976;7.594;2022-08-11T07:19:42;101560.50;;;37.22;23.27
20889;BME280;10604;51.976;7.594;2022-08-11T07:22:30;101557.22;;;38.09;23.33
20889;BME280;10604;51.976;7.594;2022-08-11T07:25:38;101550.50;;;38.31;22.61
20889;BME280;10604;51.976;7.594;2022-08-11T07:28:24;101562.91;;;38.55;22.27
20889;BME280;10604;51.976;7.594;2022-08-11T07:34:01;101554.81;;;38.54;22.35
20889;BME280;10604;51.976;7.594;2022-08-11T07:36:30;101556.59;;;38.94;21.39
20889;BME280;10604;51.976;7.594;2022-08-11T07:38:56;101560.84;;;39.43;21.68
20889;BME280;10604;51.976;7.594;2022-08-11T07:41:23;101555.28;;;38.57;22.07
20889;BME280;10604;51.976;7.594;2022-08-11T07:43:52;101553.94;;;39.65;21.28
20889;BME280;10604;51.976;7.594;2022-08-11T07:48:46;101566.34;;;39.03;21.03
20889;BME280;10604;51.976;7.594;2022-08-11T07:51:30;101553.94;;;39.65;20.20
20889;BME280;10604;51.976;7.594;2022-08-11T07:54:14;101550.56;;;39.63;19.91
20889;BME280;10604;51.976;7.594;2022-08-11T07:56:40;101557.19;;;39.56;20.44
20889;BME280;10604;51.976;7.594;2022-08-11T07:59:06;101554.25;;;38.98;20.77
20889;BME280;10604;51.976;7.594;2022-08-11T08:01:52;101556.59;;;40.05;20.26
20889;BME280;10604;51.976;7.594;2022-08-11T08:04:36;101555.47;;;40.19;19.67
20889;BME280;10604;51.976;7.594;2022-08-11T08:07:20;101553.38;;;40.08;20.10
20889;BME280;10604;51.976;7.594;2022-08-11T08:10:06;101563.13;;;40.17;20.19
20889;BME280;10604;51.976;7.594;2022-08-11T08:12:53;101563.19;;;40.80;19.54
20889;BME280;10604;51.976;7.594;2022-08-11T08:15:37;101564.81;;;41.80;19.15
20889;BME280;10604;51.976;7.594;2022-08-11T08:18:23;101556.03;;;41.65;18.96
20889;BME280;10604;51.976;7.594;2022-08-11T08:20:49;101561.56;;;42.19;18.51
20889;BME280;10604;51.976;7.594;2022-08-11T08:23:17;101567.19;;;41.15;19.03
20889;BME280;10604;51.976;7.594;2022-08-11T08:25:58;101561.84;;;40.89;19.39
20889;BME280;10604;51.976;7.594;2022-08-11T08:28:26;101563.59;;;41.76;19.06
20889;BME280;10604;51.976;7.594;2022-08-11T08:30:52;101570.00;;;42.73;18.08
20889;BME280;10604;51.976;7.594;2022-08-11T08:33:28;101554.81;;;42.57;18.58
20889;BME280;10604;51.976;7.594;2022-08-11T08:35:57;101564.50;;;42.66;18.04
20889;BME280;10604;51.976;7.594;2022-08-11T08:38:51;101565.72;;;43.58;18.15
20889;BME280;10604;51.976;7.594;2022-08-11T08:41:22;101554.47;;;43.77;17.58
20889;BME280;10604;51.976;7.594;2022-08-11T08:43:54;101558.81;;;43.49;17.90
20889;BME280;10604;51.976;7.594;2022-08-11T08:46:27;101562.47;;;43.15;17.44
20889;BME280;10604;51.976;7.594;2022-08-11T08:48:56;101557.75;;;43.39;17.34
20889;BME280;10604;51.976;7.594;2022-08-11T08:51:25;101557.56;;;43.92;17.42
20889;BME280;10604;51.976;7.594;2022-08-11T08:54:05;101562.84;;;44.62;17.17
20889;BME280;10604;51.976;7.594;2022-08-11T08:56:31;101563.13;;;44.20;16.89
20889;BME280;10604;51.976;7.594;2022-08-11T08:59:02;101557.16;;;44.12;16.60
20889;BME280;10604;51.976;7.594;2022-08-11T09:01:35;101556.22;;;44.34;16.97
20889;BME280;10604;51.976;7.594;2022-08-11T09:04:06;101562.06;;;44.21;16.44
20889;BME280;10604;51.976;7.594;2022-08-11T09:06:39;101567.59;;;44.78;16.54
20889;BME280;10604;51.976;7.594;2022-08-11T09:09:06;101563.34;;;44.59;16.53
20889;BME280;10604;51.976;7.594;2022-08-11T09:11:37;101561.53;;;45.14;16.26
20889;BME280;10604;51.976;7.594;2022-08-11T09:14:36;101561.38;;;44.88;16.33
20889;BME280;10604;51.976;7.594;2022-08-11T09:17:21;101555.28;;;45.07;16.49
20889;BME280;10604;51.976;7.594;2022-08-11T09:19:50;101562.28;;;44.93;15.61
20889;BME280;10604;51.976;7.594;2022-08-11T09:22:19;101555.63;;;45.66;16.16
20889;BME280;10604;51.976;7.594;2022-08-11T09:25:05;101558.47;;;44.66;15.74
20889;BME280;10604;51.976;7.594;2022-08-11T09:27:51;101551.59;;;44.57;16.43
20889;BME280;10604;51.976;7.594;2022-08-11T09:30:19;101550.78;;;45.40;15.76
20889;BME280;10604;51.976;7.594;2022-08-11T09:32:45;101543.78;;;45.20;16.12
20889;BME280;10604;51.976;7.594;2022-08-11T09:35:11;101542.72;;;45.60;15.65
20889;BME280;10604;51.976;7.594;2022-08-11T09:37:37;101535.44;;;45.59;15.53
20889;BME280;10604;51.976;7.594;2022-08-11T09:40:22;101542.59;;;46.42;15.91
20889;BME280;10604;51.976;7.594;2022-08-11T09:42:56;101545.47;;;46.52;15.06
20889;BME280;10604;51.976;7.594;2022-08-11T09:45:44;101536.50;;;46.50;14.38
20889;BME280;10604;51.976;7.594;2022-08-11T09:48:15;101536.84;;;45.83;15.00
20889;BME280;10604;51.976;7.594;2022-08-11T09:50:44;101535.53;;;46.13;15.54
20889;BME280;10604;51.976;7.594;2022-08-11T09:53:14;101543.31;;;47.28;15.26
20889;BME280;10604;51.976;7.594;2022-08-11T09:55:40;101537.69;;;47.18;13.81
20889;BME280;10604;51.976;7.594;2022-08-11T09:58:07;101544.41;;;47.22;14.22
20889;BME280;10604;51.976;7.594;2022-08-11T10:00:41;101542.31;;;47.44;13.64
20889;BME280;10604;51.976;7.594;2022-08-11T10:03:22;101542.34;;;47.55;13.14
20889;BME280;10604;51.976;7.594;2022-08-11T10:05:52;101526.06;;;47.41;13.38
20889;BME280;10604;51.976;7.594;2022-08-11T10:08:39;101531.91;;;47.92;13.48
20889;BME280;10604;51.976;7.594;2022-08-11T10:11:08;101524.59;;;47.86;13.27
20889;BME280;10604;51.976;7.594;2022-08-11T10:13:44;101529.19;;;48.07;12.92
20889;BME280;10604;51.976;7.594;2022-08-11T10:16:31;101530.94;;;48.69;12.71
20889;BME280;10604;51.976;7.594;2022-08-11T10:19:01;101529.84;;;48.85;13.02
20889;BME280;10604;51.976;7.594;2022-08-11T10:21:37;101523.09;;;49.01;12.35
20889;BME280;10604;51.976;7.594;2022-08-11T10:24:06;101520.28;;;48.91;12.30
20889;BME280;10604;51.976;7.594;2022-08-11T10:26:53;101521.88;;;48.06;12.71
20889;BME280;10604;51.976;7.594;2022-08-11T10:29:25;101519.59;;;47.98;12.70
20889;BME280;10604;51.976;7.594;2022-08-11T10:32:10;101512.28;;;47.87;13.41
20889;BME280;10604;51.976;7.594;2022-08-11T10:34:56;101515.38;;;47.90;12.96
20889;BME280;10604;51.976;7.594;2022-08-11T10:37:23;101512.38;;;48.07;13.15
20889;BME280;10604;51.976;7.594;2022-08-11T10:39:51;101520.00;;;48.62;13.26
20889;BME280;10604;51.976;7.594;2022-08-11T10:42:17;101511.03;;;48.71;12.74
20889;BME280;10604;51.976;7.594;2022-08-11T10:45:04;101503.75;;;48.49;13.43
20889;BME280;10604;51.976;7.594;2022-08-11T10:47:55;101506.84;;;48.88;12.52
20889;BME280;10604;51.976;7.594;2022-08-11T10:50:21;101502.72;;;49.60;11.29
20889;BME280;10604;51.976;7.594;2022-08-11T10:53:06;101487.66;;;47.89;12.62
20889;BME280;10604;51.976;7.594;2022-08-11T10:55:50;101493.88;;;49.18;12.77
20889;BME280;10604;51.976;7.594;2022-08-11T10:58:36;101495.94;;;49.71;11.55
20889;BME280;10604;51.976;7.594;2022-08-11T11:01:12;101504.97;;;50.12;12.33
20889;BME280;10604;51.976;7.594;2022-08-11T11:03:38;101503.38;;;50.40;11.71
20889;BME280;10604;51.976;7.594;2022-08-11T11:06:07;101502.44;;;49.67;11.36
20889;BME280;10604;51.976;7.594;2022-08-11T11:08:38;101494.78;;;48.78;11.37
20889;BME280;10604;51.976;7.594;2022-08-11T11:11:22;101486.53;;;49.37;11.14
20889;BME280;10604;51.976;7.594;2022-08-11T11:14:08;101484.66;;;49.87;12.34
20889;BME280;10604;51.976;7.594;2022-08-11T11:16:51;101493.41;;;49.70;11.57
20889;BME280;10604;51.976;7.594;2022-08-11T11:19:38;101487.88;;;50.04;10.77
20889;BME280;10604;51.976;7.594;2022-08-11T11:22:03;101491.53;;;50.77;11.38
20889;BME280;10604;51.976;7.594;2022-08-11T11:24:57;101481.19;;;50.73;10.79
20889;BME280;10604;51.976;7.594;2022-08-11T11:29:53;101479.38;;;50.58;11.68
20889;BME280;10604;51.976;7.594;2022-08-11T11:32:59;101468.84;;;49.96;11.36
20889;BME280;10604;51.976;7.594;2022-08-11T11:37:50;101472.56;;;52.02;10.92
20889;BME280;10604;51.976;7.594;2022-08-11T11:40:17;101462.66;;;51.67;11.19
20889;BME280;10604;51.976;7.594;2022-08-11T11:42:45;101478.72;;;50.95;10.99
20889;BME280;10604;51.976;7.594;2022-08-11T11:45:15;101475.56;;;50.39;11.29
20889;BME280;10604;51.976;7.594;2022-08-11T11:47:41;101470.84;;;50.34;12.19
20889;BME280;10604;51.976;7.594;2022-08-11T11:50:08;101461.97;;;51.09;11.45
20889;BME280;10604;51.976;7.594;2022-08-11T11:52:34;101455.06;;;49.99;12.14
20889;BME280;10604;51.976;7.594;2022-08-11T11:55:02;101455.44;;;49.83;10.86
20889;BME280;10604;51.976;7.594;2022-08-11T11:57:28;101443.59;;;50.92;10.54
20889;BME280;10604;51.976;7.594;2022-08-11T12:00:12;101443.84;;;49.45;11.66
20889;BME280;10604;51.976;7.594;2022-08-11T12:02:57;101446.97;;;49.33;11.85
20889;BME280;10604;51.976;7.594;2022-08-11T12:05:23;101436.34;;;49.85;10.74
20889;BME280;10604;51.976;7.594;2022-08-11T12:07:48;101427.56;;;49.52;10.72
20889;BME280;10604;51.976;7.594;2022-08-11T12:10:33;101434.25;;;50.97;10.42
20889;BME280;10604;51.976;7.594;2022-08-11T12:12:58;101430.31;;;51.64;10.37
20889;BME280;10604;51.976;7.594;2022-08-11T12:15:44;101438.09;;;51.91;10.87
20889;BME280;10604;51.976;7.594;2022-08-11T12:18:10;101427.31;;;51.75;10.27
20889;BME280;10604;51.976;7.594;2022-08-11T12:20:35;101432.41;;;52.61;10.18
20889;BME280;10604;51.976;7.594;2022-08-11T12:23:01;101429.19;;;52.81;10.13
20889;BME280;10604;51.976;7.594;2022-08-11T12:25:45;101422.59;;;53.54;9.90
20889;BME280;10604;51.976;7.594;2022-08-11T12:28:30;101417.25;;;52.25;10.64
20889;BME280;10604;51.976;7.594;2022-08-11T12:30:56;101410.19;;;50.81;11.21
20889;BME280;10604;51.976;7.594;2022-08-11T12:33:22;101416.28;;;52.48;10.41
20889;BME280;10604;51.976;7.594;2022-08-11T12:35:55;101413.28;;;52.26;10.58
20889;BME280;10604;51.976;7.594;2022-08-11T12:38:21;101412.34;;;52.30;10.66
20889;BME280;10604;51.976;7.594;2022-08-11T12:40:47;101410.53;;;51.46;10.91
20889;BME280;10604;51.976;7.594;2022-08-11T12:43:33;101400.38;;;51.07;11.00
20889;BME280;10604;51.976;7.594;2022-08-11T12:46:24;101417.31;;;51.87;10.90
20889;BME280;10604;51.976;7.594;2022-08-11T12:48:57;101394.94;;;50.92;11.14
20889;BME280;10604;51.976;7.594;2022-08-11T12:51:49;101393.59;;;50.84;10.97
20889;BME280;10604;51.976;7.594;2022-08-11T12:54:43;101396.94;;;50.63;11.31
20889;BME280;10604;51.976;7.594;2022-08-11T12:57:24;101388.97;;;51.60;10.81
20889;BME280;10604;51.976;7.594;2022-08-11T13:00:09;101381.38;;;50.41;10.22
20889;BME280;10604;51.976;7.594;2022-08-11T13:02:54;101377.91;;;51.02;11.31
20889;BME280;10604;51.976;7.594;2022-08-11T13:05:41;101382.56;;;51.12;10.96
20889;BME280;10604;51.976;7.594;2022-08-11T13:08:07;101363.59;;;50.51;10.95
20889;BME280;10604;51.976;7.594;2022-08-11T13:10:33;101365.59;;;50.98;10.76
20889;BME280;10604;51.976;7.594;2022-08-11T13:13:18;101360.63;;;51.33;11.16
20889;BME280;10604;51.976;7.594;2022-08-11T13:15:48;101358.94;;;51.32;11.92
20889;BME280;10604;51.976;7.594;2022-08-11T13:18:18;101356.84;;;50.76;11.50
20889;BME280;10604;51.976;7.594;2022-08-11T13:20:56;101352.72;;;51.35;11.77
20889;BME280;10604;51.976;7.594;2022-08-11T13:23:23;101357.22;;;51.36;11.00
20889;BME280;10604;51.976;7.594;2022-08-11T13:25:52;101359.94;;;51.97;11.39
20889;BME280;10604;51.976;7.594;2022-08-11T13:28:20;101359.44;;;52.41;11.11
20889;BME280;10604;51.976;7.594;2022-08-11T13:30:46;101359.88;;;52.48;10.84
20889;BME280;10604;51.976;7.594;2022-08-11T13:33:31;101363.78;;;52.20;11.09
20889;BME280;10604;51.976;7.594;2022-08-11T13:35:58;101360.28;;;52.41;10.97
20889;BME280;10604;51.976;7.594;2022-08-11T13:38:25;101358.81;;;51.42;10.59
20889;BME280;10604;51.976;7.594;2022-08-11T13:40:54;101358.94;;;52.07;10.42
20889;BME280;10604;51.976;7.594;2022-08-11T13:43:21;101349.16;;;51.05;10.79
20889;BME280;10604;51.976;7.594;2022-08-11T13:45:48;101358.06;;;51.55;11.62
20889;BME280;10604;51.976;7.594;2022-08-11T13:48:15;101346.47;;;52.26;10.55
20889;BME280;10604;51.976;7.594;2022-08-11T13:50:41;101341.00;;;51.27;11.08
20889;BME280;10604;51.976;7.594;2022-08-11T13:53:28;101346.59;;;52.02;11.74
20889;BME280;10604;51.976;7.594;2022-08-11T13:55:58;101346.09;;;52.60;10.83
20889;BME280;10604;51.976;7.594;2022-08-11T13:58:25;101339.25;;;51.88;11.60
20889;BME280;10604;51.976;7.594;2022-08-11T14:00:52;101336.41;;;52.94;10.73
20889;BME280;10604;51.976;7.594;2022-08-11T14:03:26;101330.97;;;52.56;10.24
20889;BME280;10604;51.976;7.594;2022-08-11T14:05:53;101328.75;;;51.93;10.74
20889;BME280;10604;51.976;7.594;2022-08-11T14:08:25;101335.06;;;51.48;11.60
20889;BME280;10604;51.976;7.594;2022-08-11T14:10:52;101324.69;;;51.99;10.95
20889;BME280;10604;51.976;7.594;2022-08-11T14:13:44;101327.50;;;51.99;10.95
20889;BME280;10604;51.976;7.594;2022-08-11T14:16:15;101315.53;;;51.56;11.50
20889;BME280;10604;51.976;7.594;2022-08-11T14:18:44;101316.19;;;52.32;10.95
20889;BME280;10604;51.976;7.594;2022-08-11T14:21:14;101312.41;;;50.25;12.38
20889;BME280;10604;51.976;7.594;2022-08-11T14:24:00;101305.34;;;50.28;11.57
20889;BME280;10604;51.976;7.594;2022-08-11T14:26:28;101311.16;;;51.08;11.96
20889;BME280;10604;51.976;7.594;2022-08-11T14:29:08;101312.50;;;50.68;11.61
20889;BME280;10604;51.976;7.594;2022-08-11T14:31:37;101310.31;;;51.45;11.28
20889;BME280;10604;51.976;7.594;2022-08-11T14:34:07;101308.88;;;51.66;10.72
20889;BME280;10604;51.976;7.594;2022-08-11T14:36:39;101303.69;;;50.98;11.20
20889;BME280;10604;51.976;7.594;2022-08-11T14:39:08;101306.03;;;51.10;11.04
20889;BME280;10604;51.976;7.594;2022-08-11T14:41:38;101311.78;;;51.23;11.45
20889;BME280;10604;51.976;7.594;2022-08-11T14:44:24;101309.44;;;50.88;11.61
20889;BME280;10604;51.976;7.594;2022-08-11T14:47:09;101307.69;;;51.72;10.40
20889;BME280;10604;51.976;7.594;2022-08-11T14:49:40;101313.91;;;51.32;11.35
20889;BME280;10604;51.976;7.594;2022-08-11T14:52:11;101308.28;;;52.34;10.25
20889;BME280;10604;51.976;7.594;2022-08-11T14:54:48;101300.06;;;51.16;11.07
20889;BME280;10604;51.976;7.594;2022-08-11T14:57:39;101295.78;;;51.00;11.25
20889;BME280;10604;51.976;7.594;2022-08-11T15:00:06;101296.25;;;50.65;11.68
20889;BME280;10604;51.976;7.594;2022-08-11T15:02:33;101291.50;;;50.84;11.17
20889;BME280;10604;51.976;7.594;2022-08-11T15:05:19;101295.16;;;51.78;10.70
20889;BME280;10604;51.976;7.594;2022-08-11T15:07:45;101290.34;;;51.27;11.35
20889;BME280;10604;51.976;7.594;2022-08-11T15:10:10;101281.94;;;50.85;10.91
20889;BME280;10604;51.976;7.594;2022-08-11T15:12:38;101282.22;;;50.36;11.78
20889;BME280;10604;51.976;7.594;2022-08-11T15:15:04;101277.75;;;50.59;11.38
20889;BME280;10604;51.976;7.594;2022-08-11T15:17:50;101272.53;;;50.23;11.52
20889;BME280;10604;51.976;7.594;2022-08-11T15:20:17;101280.25;;;50.84;11.25
20889;BME280;10604;51.976;7.594;2022-08-11T15:23:03;101265.56;;;51.29;11.44
20889;BME280;10604;51.976;7.594;2022-08-11T15:25:57;101266.31;;;51.86;11.00
20889;BME280;10604;51.976;7.594;2022-08-11T15:28:23;101265.22;;;51.12;10.96
20889;BME280;10604;51.976;7.594;2022-08-11T15:31:10;101262.94;;;51.14;10.62
20889;BME280;10604;51.976;7.594;2022-08-11T15:33:50;101267.03;;;51.03;10.72
20889;BME280;10604;51.976;7.594;2022-08-11T15:36:35;101259.38;;;51.27;10.55
20889;BME280;10604;51.976;7.594;2022-08-11T15:39:23;101260.53;;;50.65;10.81
20889;BME280;10604;51.976;7.594;2022-08-11T15:42:06;101243.56;;;50.51;10.67
20889;BME280;10604;51.976;7.594;2022-08-11T15:44:56;101251.38;;;50.31;11.71
20889;BME280;10604;51.976;7.594;2022-08-11T15:48:00;101248.81;;;50.58;10.79
20889;BME280;10604;51.976;7.594;2022-08-11T15:50:30;101249.38;;;50.79;10.73
20889;BME280;10604;51.976;7.594;2022-08-11T15:53:02;101245.94;;;50.82;11.13
20889;BME280;10604;51.976;7.594;2022-08-11T15:55:34;101247.50;;;50.45;11.05
20889;BME280;10604;51.976;7.594;2022-08-11T15:58:02;101236.72;;;50.58;10.49
20889;BME280;10604;51.976;7.594;2022-08-11T16:00:49;101238.34;;;50.11;11.43
20889;BME280;10604;51.976;7.594;2022-08-11T16:03:53;101244.19;;;49.91;10.68
20889;BME280;10604;51.976;7.594;2022-08-11T16:10:03;101233.69;;;50.01;11.34
20889;BME280;10604;51.976;7.594;2022-08-11T16:12:36;101226.16;;;49.29;10.97
20889;BME280;10604;51.976;7.594;2022-08-11T16:15:06;101223.63;;;49.27;11.54
20889;BME280;10604;51.976;7.594;2022-08-11T16:17:56;101223.97;;;49.21;11.36
20889;BME280;10604;51.976;7.594;2022-08-11T16:20:25;101210.91;;;48.42;11.33
20889;BME280;10604;51.976;7.594;2022-08-11T16:22:54;101223.78;;;48.33;12.46
20889;BME280;10604;51.976;7.594;2022-08-11T16:25:22;101214.97;;;47.80;12.89
20889;BME280;10604;51.976;7.594;2022-08-11T16:27:54;101219.72;;;47.39;12.72
20889;BME280;10604;51.976;7.594;2022-08-11T16:30:22;101213.25;;;47.48;13.22
20889;BME280;10604;51.976;7.594;2022-08-11T16:32:49;101211.03;;;47.76;12.71
20889;BME280;10604;51.976;7.594;2022-08-11T16:35:21;101210.44;;;48.09;12.36
20889;BME280;10604;51.976;7.594;2022-08-11T16:38:07;101213.28;;;47.89;12.63
20889;BME280;10604;51.976;7.594;2022-08-11T16:40:55;101207.13;;;47.72;13.31
20889;BME280;10604;51.976;7.594;2022-08-11T16:43:26;101205.94;;;47.98;12.63
20889;BME280;10604;51.976;7.594;2022-08-11T16:46:13;101212.09;;;48.20;12.98
20889;BME280;10604;51.976;7.594;2022-08-11T16:48:59;101212.56;;;49.41;11.81
20889;BME280;10604;51.976;7.594;2022-08-11T16:51:26;101195.25;;;48.25;12.87
20889;BME280;10604;51.976;7.594;2022-08-11T16:53:51;101197.88;;;47.86;12.43
20889;BME280;10604;51.976;7.594;2022-08-11T16:56:19;101198.09;;;48.15;12.56
20889;BME280;10604;51.976;7.594;2022-08-11T16:58:51;101204.13;;;48.58;12.65
20889;BME280;10604;51.976;7.594;2022-08-11T17:01:36;101194.75;;;48.03;12.74
20889;BME280;10604;51.976;7.594;2022-08-11T17:04:08;101200.91;;;47.90;13.22
20889;BME280;10604;51.976;7.594;2022-08-11T17:06:55;101202.63;;;47.56;13.19
20889;BME280;10604;51.976;7.594;2022-08-11T17:09:39;101207.63;;;47.08;13.18
20889;BME280;10604;51.976;7.594;2022-08-11T17:12:25;101192.53;;;46.42;13.72